Terminal Aerodrome Forecast
Issued by NWS Sioux Falls, SD

Home | Current Version | Previous Version | Text Only | Print | Product List | Glossary On
Versions: 1 2 3 4 5 6 7 8 9 10 11 12 13 14 15 16
102
FTUS43 KFSD 230520
TAFHON
TAF
KHON 230520Z 2306/2406 34011KT P6SM OVC003
     FM231100 32007KT P6SM BKN003
     FM231500 29005KT P6SM BKN008
     FM231700 29006KT P6SM BKN012
     FM232100 30008KT P6SM SCT150=

USA.gov is the U.S. government's official web portal to all federal, state and local government web resources and services.